sensor_id;sensor_type;location;lat;lon;timestamp;P1;durP1;ratioP1;P2;durP2;ratioP2
27438;SDS011;14887;51.252;7.470;2023-04-01T00:02:17;0.77;;;0.47;;
27438;SDS011;14887;51.252;7.470;2023-04-01T00:04:43;0.60;;;0.57;;
27438;SDS011;14887;51.252;7.470;2023-04-01T00:07:09;0.50;;;0.40;;
27438;SDS011;14887;51.252;7.470;2023-04-01T00:09:35;0.50;;;0.40;;
27438;SDS011;14887;51.252;7.470;2023-04-01T00:12:01;0.60;;;0.53;;
27438;SDS011;14887;51.252;7.470;2023-04-01T00:14:27;0.67;;;0.67;;
27438;SDS011;14887;51.252;7.470;2023-04-01T00:16:53;1.13;;;0.90;;
27438;SDS011;14887;51.252;7.470;2023-04-01T00:19:18;0.70;;;0.70;;
27438;SDS011;14887;51.252;7.470;2023-04-01T00:21:44;0.50;;;0.40;;
27438;SDS011;14887;51.252;7.470;2023-04-01T00:24:10;0.50;;;0.40;;
27438;SDS011;14887;51.252;7.470;2023-04-01T00:26:35;0.70;;;0.70;;
27438;SDS011;14887;51.252;7.470;2023-04-01T00:29:01;1.27;;;0.60;;
27438;SDS011;14887;51.252;7.470;2023-04-01T00:31:27;0.60;;;0.50;;
27438;SDS011;14887;51.252;7.470;2023-04-01T00:33:53;1.90;;;0.50;;
27438;SDS011;14887;51.252;7.470;2023-04-01T00:36:19;0.50;;;0.40;;
27438;SDS011;14887;51.252;7.470;2023-04-01T00:38:46;0.50;;;0.40;;
27438;SDS011;14887;51.252;7.470;2023-04-01T00:41:12;0.73;;;0.70;;
27438;SDS011;14887;51.252;7.470;2023-04-01T00:43:39;0.50;;;0.50;;
27438;SDS011;14887;51.252;7.470;2023-04-01T00:46:10;0.60;;;0.60;;
27438;SDS011;14887;51.252;7.470;2023-04-01T00:48:36;11.73;;;0.80;;
27438;SDS011;14887;51.252;7.470;2023-04-01T00:51:07;1.17;;;1.07;;
27438;SDS011;14887;51.252;7.470;2023-04-01T00:53:53;0.50;;;0.40;;
27438;SDS011;14887;51.252;7.470;2023-04-01T00:56:36;0.50;;;0.40;;
27438;SDS011;14887;51.252;7.470;2023-04-01T00:59:07;0.50;;;0.40;;
27438;SDS011;14887;51.252;7.470;2023-04-01T01:01:39;0.50;;;0.40;;
27438;SDS011;14887;51.252;7.470;2023-04-01T01:04:05;0.60;;;0.60;;
27438;SDS011;14887;51.252;7.470;2023-04-01T01:22:39;0.50;;;0.40;;
27438;SDS011;14887;51.252;7.470;2023-04-01T01:25:24;1.20;;;0.47;;
27438;SDS011;14887;51.252;7.470;2023-04-01T01:36:37;0.50;;;0.50;;
27438;SDS011;14887;51.252;7.470;2023-04-01T01:39:05;0.60;;;0.57;;
27438;SDS011;14887;51.252;7.470;2023-04-01T01:41:33;0.50;;;0.40;;
27438;SDS011;14887;51.252;7.470;2023-04-01T01:44:02;1.87;;;0.60;;
27438;SDS011;14887;51.252;7.470;2023-04-01T01:46:31;0.97;;;0.70;;
27438;SDS011;14887;51.252;7.470;2023-04-01T01:48:56;0.50;;;0.40;;
27438;SDS011;14887;51.252;7.470;2023-04-01T01:51:25;0.50;;;0.40;;
27438;SDS011;14887;51.252;7.470;2023-04-01T01:53:52;0.60;;;0.50;;
27438;SDS011;14887;51.252;7.470;2023-04-01T01:56:18;0.50;;;0.40;;
27438;SDS011;14887;51.252;7.470;2023-04-01T01:58:47;0.50;;;0.40;;
27438;SDS011;14887;51.252;7.470;2023-04-01T02:01:19;0.60;;;0.53;;
27438;SDS011;14887;51.252;7.470;2023-04-01T02:03:49;0.50;;;0.40;;
27438;SDS011;14887;51.252;7.470;2023-04-01T02:06:17;0.50;;;0.40;;
27438;SDS011;14887;51.252;7.470;2023-04-01T02:08:47;0.60;;;0.40;;
27438;SDS011;14887;51.252;7.470;2023-04-01T02:11:26;0.70;;;0.50;;
27438;SDS011;14887;51.252;7.470;2023-04-01T02:14:07;0.50;;;0.40;;
27438;SDS011;14887;51.252;7.470;2023-04-01T02:16:36;1.43;;;0.80;;
27438;SDS011;14887;51.252;7.470;2023-04-01T02:19:08;0.50;;;0.40;;
27438;SDS011;14887;51.252;7.470;2023-04-01T02:21:36;0.60;;;0.40;;
27438;SDS011;14887;51.252;7.470;2023-04-01T02:24:04;0.50;;;0.40;;
27438;SDS011;14887;51.252;7.470;2023-04-01T02:26:34;0.50;;;0.40;;
27438;SDS011;14887;51.252;7.470;2023-04-01T02:29:00;0.70;;;0.40;;
27438;SDS011;14887;51.252;7.470;2023-04-01T02:31:28;0.50;;;0.40;;
27438;SDS011;14887;51.252;7.470;2023-04-01T02:33:55;0.50;;;0.40;;
27438;SDS011;14887;51.252;7.470;2023-04-01T02:36:21;0.50;;;0.50;;
27438;SDS011;14887;51.252;7.470;2023-04-01T02:38:47;0.70;;;0.70;;
27438;SDS011;14887;51.252;7.470;2023-04-01T02:41:14;0.53;;;0.47;;
27438;SDS011;14887;51.252;7.470;2023-04-01T02:43:40;0.50;;;0.40;;
27438;SDS011;14887;51.252;7.470;2023-04-01T02:46:05;0.60;;;0.50;;
27438;SDS011;14887;51.252;7.470;2023-04-01T02:48:31;0.50;;;0.40;;
27438;SDS011;14887;51.252;7.470;2023-04-01T02:50:57;0.50;;;0.40;;
27438;SDS011;14887;51.252;7.470;2023-04-01T02:53:22;0.50;;;0.40;;
27438;SDS011;14887;51.252;7.470;2023-04-01T02:55:48;0.50;;;0.40;;
27438;SDS011;14887;51.252;7.470;2023-04-01T02:58:15;0.60;;;0.50;;
27438;SDS011;14887;51.252;7.470;2023-04-01T03:00:41;0.50;;;0.40;;
27438;SDS011;14887;51.252;7.470;2023-04-01T03:03:08;0.50;;;0.40;;
27438;SDS011;14887;51.252;7.470;2023-04-01T03:05:33;0.50;;;0.40;;
27438;SDS011;14887;51.252;7.470;2023-04-01T03:07:59;0.60;;;0.60;;
27438;SDS011;14887;51.252;7.470;2023-04-01T03:10:25;1.07;;;0.97;;
27438;SDS011;14887;51.252;7.470;2023-04-01T03:12:50;0.53;;;0.50;;
27438;SDS011;14887;51.252;7.470;2023-04-01T03:15:16;0.50;;;0.40;;
27438;SDS011;14887;51.252;7.470;2023-04-01T03:17:42;0.50;;;0.40;;
27438;SDS011;14887;51.252;7.470;2023-04-01T03:20:08;0.50;;;0.40;;
27438;SDS011;14887;51.252;7.470;2023-04-01T03:22:35;0.50;;;0.40;;
27438;SDS011;14887;51.252;7.470;2023-04-01T03:25:02;0.50;;;0.40;;
27438;SDS011;14887;51.252;7.470;2023-04-01T03:27:29;0.50;;;0.50;;
27438;SDS011;14887;51.252;7.470;2023-04-01T03:29:55;6.53;;;1.13;;
27438;SDS011;14887;51.252;7.470;2023-04-01T03:32:20;0.60;;;0.60;;
27438;SDS011;14887;51.252;7.470;2023-04-01T03:34:46;0.50;;;0.40;;
27438;SDS011;14887;51.252;7.470;2023-04-01T03:37:12;1.17;;;0.80;;
27438;SDS011;14887;51.252;7.470;2023-04-01T03:39:37;0.80;;;0.70;;
27438;SDS011;14887;51.252;7.470;2023-04-01T03:42:03;0.60;;;0.50;;
27438;SDS011;14887;51.252;7.470;2023-04-01T03:44:32;0.70;;;0.60;;
27438;SDS011;14887;51.252;7.470;2023-04-01T03:46:58;0.70;;;0.50;;
27438;SDS011;14887;51.252;7.470;2023-04-01T03:49:25;0.70;;;0.50;;
27438;SDS011;14887;51.252;7.470;2023-04-01T03:51:51;0.60;;;0.50;;
27438;SDS011;14887;51.252;7.470;2023-04-01T03:54:16;0.50;;;0.40;;
27438;SDS011;14887;51.252;7.470;2023-04-01T03:56:44;0.50;;;0.40;;
27438;SDS011;14887;51.252;7.470;2023-04-01T03:59:10;0.73;;;0.50;;
27438;SDS011;14887;51.252;7.470;2023-04-01T04:01:36;0.50;;;0.40;;
27438;SDS011;14887;51.252;7.470;2023-04-01T04:04:02;0.50;;;0.40;;
27438;SDS011;14887;51.252;7.470;2023-04-01T04:06:28;0.50;;;0.40;;
27438;SDS011;14887;51.252;7.470;2023-04-01T04:08:54;0.50;;;0.40;;
27438;SDS011;14887;51.252;7.470;2023-04-01T04:11:20;0.50;;;0.40;;
27438;SDS011;14887;51.252;7.470;2023-04-01T04:13:46;0.50;;;0.40;;
27438;SDS011;14887;51.252;7.470;2023-04-01T04:16:13;0.50;;;0.40;;
27438;SDS011;14887;51.252;7.470;2023-04-01T04:18:39;1.83;;;0.60;;
27438;SDS011;14887;51.252;7.470;2023-04-01T04:21:04;3.50;;;0.63;;
27438;SDS011;14887;51.252;7.470;2023-04-01T04:23:30;0.57;;;0.50;;
27438;SDS011;14887;51.252;7.470;2023-04-01T04:26:06;0.50;;;0.50;;
27438;SDS011;14887;51.252;7.470;2023-04-01T04:28:32;0.50;;;0.50;;
27438;SDS011;14887;51.252;7.470;2023-04-01T04:30:58;0.60;;;0.50;;
27438;SDS011;14887;51.252;7.470;2023-04-01T04:33:24;0.50;;;0.50;;
27438;SDS011;14887;51.252;7.470;2023-04-01T04:35:50;0.50;;;0.50;;
27438;SDS011;14887;51.252;7.470;2023-04-01T04:38:16;0.50;;;0.40;;
27438;SDS011;14887;51.252;7.470;2023-04-01T04:40:42;0.50;;;0.40;;
27438;SDS011;14887;51.252;7.470;2023-04-01T04:43:12;0.60;;;0.60;;
27438;SDS011;14887;51.252;7.470;2023-04-01T04:45:38;0.50;;;0.40;;
27438;SDS011;14887;51.252;7.470;2023-04-01T04:48:04;2.67;;;0.63;;
27438;SDS011;14887;51.252;7.470;2023-04-01T04:50:32;0.60;;;0.50;;
27438;SDS011;14887;51.252;7.470;2023-04-01T04:52:57;0.60;;;0.60;;
27438;SDS011;14887;51.252;7.470;2023-04-01T04:55:23;0.60;;;0.40;;
27438;SDS011;14887;51.252;7.470;2023-04-01T04:57:48;0.50;;;0.40;;
27438;SDS011;14887;51.252;7.470;2023-04-01T05:00:14;0.50;;;0.40;;
27438;SDS011;14887;51.252;7.470;2023-04-01T05:02:40;1.10;;;0.60;;
27438;SDS011;14887;51.252;7.470;2023-04-01T05:05:06;0.50;;;0.43;;
27438;SDS011;14887;51.252;7.470;2023-04-01T05:07:33;0.60;;;0.50;;
27438;SDS011;14887;51.252;7.470;2023-04-01T05:09:58;0.50;;;0.40;;
27438;SDS011;14887;51.252;7.470;2023-04-01T05:12:24;0.50;;;0.40;;
27438;SDS011;14887;51.252;7.470;2023-04-01T05:14:50;0.60;;;0.50;;
27438;SDS011;14887;51.252;7.470;2023-04-01T05:17:15;0.50;;;0.33;;
27438;SDS011;14887;51.252;7.470;2023-04-01T05:19:41;0.50;;;0.40;;
27438;SDS011;14887;51.252;7.470;2023-04-01T05:22:06;0.73;;;0.50;;
27438;SDS011;14887;51.252;7.470;2023-04-01T05:24:32;0.87;;;0.50;;
27438;SDS011;14887;51.252;7.470;2023-04-01T05:26:58;0.60;;;0.60;;
27438;SDS011;14887;51.252;7.470;2023-04-01T05:29:24;0.50;;;0.40;;
27438;SDS011;14887;51.252;7.470;2023-04-01T05:31:50;0.60;;;0.50;;
27438;SDS011;14887;51.252;7.470;2023-04-01T05:34:16;0.50;;;0.40;;
27438;SDS011;14887;51.252;7.470;2023-04-01T05:36:42;0.83;;;0.60;;
27438;SDS011;14887;51.252;7.470;2023-04-01T05:39:08;0.50;;;0.40;;
27438;SDS011;14887;51.252;7.470;2023-04-01T05:41:35;0.50;;;0.40;;
27438;SDS011;14887;51.252;7.470;2023-04-01T05:44:01;0.50;;;0.40;;
27438;SDS011;14887;51.252;7.470;2023-04-01T05:46:27;0.50;;;0.40;;
27438;SDS011;14887;51.252;7.470;2023-04-01T05:48:53;0.50;;;0.40;;
27438;SDS011;14887;51.252;7.470;2023-04-01T05:51:18;0.50;;;0.40;;
27438;SDS011;14887;51.252;7.470;2023-04-01T05:53:44;0.70;;;0.53;;
27438;SDS011;14887;51.252;7.470;2023-04-01T05:56:09;0.50;;;0.40;;
27438;SDS011;14887;51.252;7.470;2023-04-01T05:58:36;0.50;;;0.50;;
27438;SDS011;14887;51.252;7.470;2023-04-01T06:01:03;0.60;;;0.50;;
27438;SDS011;14887;51.252;7.470;2023-04-01T06:03:30;0.60;;;0.53;;
27438;SDS011;14887;51.252;7.470;2023-04-01T06:05:55;0.50;;;0.40;;
27438;SDS011;14887;51.252;7.470;2023-04-01T06:08:21;0.70;;;0.70;;
27438;SDS011;14887;51.252;7.470;2023-04-01T06:11:11;0.60;;;0.50;;
27438;SDS011;14887;51.252;7.470;2023-04-01T06:16:54;0.50;;;0.40;;
27438;SDS011;14887;51.252;7.470;2023-04-01T06:25:16;0.50;;;0.40;;
27438;SDS011;14887;51.252;7.470;2023-04-01T06:28:05;0.60;;;0.50;;
27438;SDS011;14887;51.252;7.470;2023-04-01T06:31:07;0.80;;;0.50;;
27438;SDS011;14887;51.252;7.470;2023-04-01T06:36:39;0.60;;;0.50;;
27438;SDS011;14887;51.252;7.470;2023-04-01T06:52:57;0.50;;;0.40;;
27438;SDS011;14887;51.252;7.470;2023-04-01T06:55:41;0.70;;;0.60;;
27438;SDS011;14887;51.252;7.470;2023-04-01T06:58:15;1.27;;;0.60;;
27438;SDS011;14887;51.252;7.470;2023-04-01T07:00:49;0.50;;;0.40;;
27438;SDS011;14887;51.252;7.470;2023-04-01T07:03:20;0.50;;;0.40;;
27438;SDS011;14887;51.252;7.470;2023-04-01T07:05:51;0.93;;;0.73;;
27438;SDS011;14887;51.252;7.470;2023-04-01T07:08:23;0.50;;;0.40;;
27438;SDS011;14887;51.252;7.470;2023-04-01T07:11:01;0.80;;;0.70;;
27438;SDS011;14887;51.252;7.470;2023-04-01T07:18:52;0.50;;;0.50;;
27438;SDS011;14887;51.252;7.470;2023-04-01T07:21:47;0.50;;;0.40;;
27438;SDS011;14887;51.252;7.470;2023-04-01T07:24:24;1.17;;;0.70;;
27438;SDS011;14887;51.252;7.470;2023-04-01T07:26:58;2.40;;;0.60;;
27438;SDS011;14887;51.252;7.470;2023-04-01T07:29:25;0.50;;;0.40;;
27438;SDS011;14887;51.252;7.470;2023-04-01T07:34:51;1.33;;;0.87;;
27438;SDS011;14887;51.252;7.470;2023-04-01T07:37:53;0.97;;;0.50;;
27438;SDS011;14887;51.252;7.470;2023-04-01T07:53:48;0.50;;;0.50;;
27438;SDS011;14887;51.252;7.470;2023-04-01T07:59:38;0.63;;;0.63;;
27438;SDS011;14887;51.252;7.470;2023-04-01T08:13:44;0.60;;;0.60;;
27438;SDS011;14887;51.252;7.470;2023-04-01T08:16:35;0.50;;;0.40;;
27438;SDS011;14887;51.252;7.470;2023-04-01T08:22:16;0.83;;;0.57;;
27438;SDS011;14887;51.252;7.470;2023-04-01T08:24:50;0.80;;;0.80;;
27438;SDS011;14887;51.252;7.470;2023-04-01T08:27:23;0.50;;;0.43;;
27438;SDS011;14887;51.252;7.470;2023-04-01T08:32:41;1.23;;;0.93;;
27438;SDS011;14887;51.252;7.470;2023-04-01T08:37:54;0.50;;;0.40;;
27438;SDS011;14887;51.252;7.470;2023-04-01T08:40:35;0.60;;;0.50;;
27438;SDS011;14887;51.252;7.470;2023-04-01T08:51:48;1.13;;;0.80;;
27438;SDS011;14887;51.252;7.470;2023-04-01T08:54:37;0.50;;;0.40;;
27438;SDS011;14887;51.252;7.470;2023-04-01T08:57:32;0.50;;;0.40;;
27438;SDS011;14887;51.252;7.470;2023-04-01T09:17:00;0.50;;;0.40;;
27438;SDS011;14887;51.252;7.470;2023-04-01T09:19:55;0.50;;;0.40;;
27438;SDS011;14887;51.252;7.470;2023-04-01T09:22:35;0.50;;;0.40;;
27438;SDS011;14887;51.252;7.470;2023-04-01T09:30:59;0.93;;;0.80;;
27438;SDS011;14887;51.252;7.470;2023-04-01T09:39:34;0.60;;;0.60;;
27438;SDS011;14887;51.252;7.470;2023-04-01T09:44:59;0.53;;;0.43;;
27438;SDS011;14887;51.252;7.470;2023-04-01T09:47:45;2.50;;;0.50;;
27438;SDS011;14887;51.252;7.470;2023-04-01T09:53:01;0.50;;;0.50;;
27438;SDS011;14887;51.252;7.470;2023-04-01T10:03:58;0.50;;;0.40;;
27438;SDS011;14887;51.252;7.470;2023-04-01T10:06:49;0.50;;;0.40;;
27438;SDS011;14887;51.252;7.470;2023-04-01T10:12:22;2.33;;;0.80;;
27438;SDS011;14887;51.252;7.470;2023-04-01T10:18:20;0.57;;;0.57;;
27438;SDS011;14887;51.252;7.470;2023-04-01T10:38:01;1.03;;;0.80;;
27438;SDS011;14887;51.252;7.470;2023-04-01T10:46:22;0.50;;;0.40;;
27438;SDS011;14887;51.252;7.470;2023-04-01T10:57:42;1.57;;;1.10;;
27438;SDS011;14887;51.252;7.470;2023-04-01T11:00:26;0.70;;;0.60;;
27438;SDS011;14887;51.252;7.470;2023-04-01T11:09:04;0.60;;;0.60;;
27438;SDS011;14887;51.252;7.470;2023-04-01T11:17:42;1.80;;;1.70;;
27438;SDS011;14887;51.252;7.470;2023-04-01T11:20:52;0.50;;;0.40;;
27438;SDS011;14887;51.252;7.470;2023-04-01T11:23:50;1.90;;;1.80;;
27438;SDS011;14887;51.252;7.470;2023-04-01T11:29:26;2.37;;;1.10;;
27438;SDS011;14887;51.252;7.470;2023-04-01T11:40:36;1.43;;;1.33;;
27438;SDS011;14887;51.252;7.470;2023-04-01T11:43:13;0.80;;;0.80;;
27438;SDS011;14887;51.252;7.470;2023-04-01T11:45:47;0.80;;;0.80;;
27438;SDS011;14887;51.252;7.470;2023-04-01T11:48:20;0.80;;;0.73;;
27438;SDS011;14887;51.252;7.470;2023-04-01T12:10:59;1.13;;;0.80;;
27438;SDS011;14887;51.252;7.470;2023-04-01T12:16:53;0.80;;;0.80;;
27438;SDS011;14887;51.252;7.470;2023-04-01T12:19:48;2.63;;;0.60;;
27438;SDS011;14887;51.252;7.470;2023-04-01T12:22:22;1.10;;;0.80;;
27438;SDS011;14887;51.252;7.470;2023-04-01T12:25:07;1.43;;;0.60;;
27438;SDS011;14887;51.252;7.470;2023-04-01T12:27:49;0.50;;;0.40;;
27438;SDS011;14887;51.252;7.470;2023-04-01T12:40:59;1.33;;;0.97;;
27438;SDS011;14887;51.252;7.470;2023-04-01T12:43:41;1.00;;;0.70;;
27438;SDS011;14887;51.252;7.470;2023-04-01T12:46:26;0.57;;;0.50;;
27438;SDS011;14887;51.252;7.470;2023-04-01T12:51:37;0.50;;;0.40;;
27438;SDS011;14887;51.252;7.470;2023-04-01T13:10:56;1.53;;;1.33;;
27438;SDS011;14887;51.252;7.470;2023-04-01T13:19:43;0.60;;;0.60;;
27438;SDS011;14887;51.252;7.470;2023-04-01T13:22:15;1.03;;;1.00;;
27438;SDS011;14887;51.252;7.470;2023-04-01T13:25:06;1.00;;;0.90;;
27438;SDS011;14887;51.252;7.470;2023-04-01T13:27:41;0.50;;;0.40;;
27438;SDS011;14887;51.252;7.470;2023-04-01T13:35:43;3.23;;;2.07;;
27438;SDS011;14887;51.252;7.470;2023-04-01T13:41:01;0.60;;;0.50;;
27438;SDS011;14887;51.252;7.470;2023-04-01T13:43:45;1.90;;;1.03;;
27438;SDS011;14887;51.252;7.470;2023-04-01T13:46:35;1.80;;;0.70;;
27438;SDS011;14887;51.252;7.470;2023-04-01T13:49:24;1.40;;;1.00;;
27438;SDS011;14887;51.252;7.470;2023-04-01T14:06:14;2.00;;;0.50;;
27438;SDS011;14887;51.252;7.470;2023-04-01T14:09:05;1.87;;;1.43;;
27438;SDS011;14887;51.252;7.470;2023-04-01T14:12:02;0.60;;;0.53;;
27438;SDS011;14887;51.252;7.470;2023-04-01T14:17:29;0.50;;;0.40;;
27438;SDS011;14887;51.252;7.470;2023-04-01T14:22:58;0.50;;;0.40;;
27438;SDS011;14887;51.252;7.470;2023-04-01T14:28:29;0.60;;;0.60;;
27438;SDS011;14887;51.252;7.470;2023-04-01T14:33:48;0.70;;;0.67;;
27438;SDS011;14887;51.252;7.470;2023-04-01T14:50:55;1.10;;;1.00;;
27438;SDS011;14887;51.252;7.470;2023-04-01T14:53:28;0.80;;;0.80;;
27438;SDS011;14887;51.252;7.470;2023-04-01T14:55:56;1.30;;;0.70;;
27438;SDS011;14887;51.252;7.470;2023-04-01T14:58:25;0.50;;;0.40;;
27438;SDS011;14887;51.252;7.470;2023-04-01T15:03:39;0.70;;;0.70;;
27438;SDS011;14887;51.252;7.470;2023-04-01T15:14:17;0.90;;;0.90;;
27438;SDS011;14887;51.252;7.470;2023-04-01T15:19:45;1.47;;;1.37;;
27438;SDS011;14887;51.252;7.470;2023-04-01T15:26:09;2.37;;;1.40;;
27438;SDS011;14887;51.252;7.470;2023-04-01T15:28:25;1.57;;;1.17;;
27438;SDS011;14887;51.252;7.470;2023-04-01T15:31:09;1.13;;;0.97;;
27438;SDS011;14887;51.252;7.470;2023-04-01T15:33:39;0.93;;;0.50;;
27438;SDS011;14887;51.252;7.470;2023-04-01T15:36:39;0.50;;;0.40;;
27438;SDS011;14887;51.252;7.470;2023-04-01T15:42:17;1.93;;;1.63;;
27438;SDS011;14887;51.252;7.470;2023-04-01T16:02:43;1.23;;;0.90;;
27438;SDS011;14887;51.252;7.470;2023-04-01T16:05:42;0.60;;;0.60;;
27438;SDS011;14887;51.252;7.470;2023-04-01T16:08:37;1.23;;;1.07;;
27438;SDS011;14887;51.252;7.470;2023-04-01T16:13:55;0.80;;;0.70;;
27438;SDS011;14887;51.252;7.470;2023-04-01T16:21:59;0.50;;;0.40;;
27438;SDS011;14887;51.252;7.470;2023-04-01T16:24:33;0.90;;;0.70;;
27438;SDS011;14887;51.252;7.470;2023-04-01T16:33:04;1.70;;;1.13;;
27438;SDS011;14887;51.252;7.470;2023-04-01T16:35:55;0.50;;;0.40;;
27438;SDS011;14887;51.252;7.470;2023-04-01T16:38:39;0.60;;;0.50;;
27438;SDS011;14887;51.252;7.470;2023-04-01T16:41:29;0.80;;;0.80;;
27438;SDS011;14887;51.252;7.470;2023-04-01T16:44:09;2.47;;;1.60;;
27438;SDS011;14887;51.252;7.470;2023-04-01T16:46:49;0.70;;;0.60;;
27438;SDS011;14887;51.252;7.470;2023-04-01T16:49:37;1.50;;;1.17;;
27438;SDS011;14887;51.252;7.470;2023-04-01T16:52:34;1.13;;;1.00;;
27438;SDS011;14887;51.252;7.470;2023-04-01T16:55:17;2.33;;;1.17;;
27438;SDS011;14887;51.252;7.470;2023-04-01T16:57:52;0.50;;;0.40;;
27438;SDS011;14887;51.252;7.470;2023-04-01T17:03:04;0.87;;;0.70;;
27438;SDS011;14887;51.252;7.470;2023-04-01T17:08:14;0.63;;;0.60;;
27438;SDS011;14887;51.252;7.470;2023-04-01T17:10:51;0.50;;;0.40;;
27438;SDS011;14887;51.252;7.470;2023-04-01T17:13:43;3.70;;;1.27;;
27438;SDS011;14887;51.252;7.470;2023-04-01T17:16:24;2.90;;;2.60;;
27438;SDS011;14887;51.252;7.470;2023-04-01T17:30:09;0.97;;;0.87;;
27438;SDS011;14887;51.252;7.470;2023-04-01T17:41:19;0.50;;;0.40;;
27438;SDS011;14887;51.252;7.470;2023-04-01T17:47:05;0.60;;;0.60;;
27438;SDS011;14887;51.252;7.470;2023-04-01T17:49:49;0.50;;;0.40;;
27438;SDS011;14887;51.252;7.470;2023-04-01T17:52:27;0.67;;;0.60;;
27438;SDS011;14887;51.252;7.470;2023-04-01T18:02:57;0.50;;;0.50;;
27438;SDS011;14887;51.252;7.470;2023-04-01T18:05:51;0.60;;;0.60;;
27438;SDS011;14887;51.252;7.470;2023-04-01T18:08:41;1.27;;;0.70;;
27438;SDS011;14887;51.252;7.470;2023-04-01T18:16:53;1.37;;;1.27;;
27438;SDS011;14887;51.252;7.470;2023-04-01T18:19:41;0.90;;;0.70;;
27438;SDS011;14887;51.252;7.470;2023-04-01T18:27:39;3.40;;;1.50;;
27438;SDS011;14887;51.252;7.470;2023-04-01T18:30:15;1.73;;;0.87;;
27438;SDS011;14887;51.252;7.470;2023-04-01T18:32:48;0.50;;;0.40;;
27438;SDS011;14887;51.252;7.470;2023-04-01T18:38:20;0.50;;;0.40;;
27438;SDS011;14887;51.252;7.470;2023-04-01T18:43:32;0.93;;;0.83;;
27438;SDS011;14887;51.252;7.470;2023-04-01T18:51:56;0.50;;;0.50;;
27438;SDS011;14887;51.252;7.470;2023-04-01T18:54:29;0.60;;;0.60;;
27438;SDS011;14887;51.252;7.470;2023-04-01T18:57:16;0.60;;;0.50;;
27438;SDS011;14887;51.252;7.470;2023-04-01T18:59:46;1.03;;;0.90;;
27438;SDS011;14887;51.252;7.470;2023-04-01T19:05:21;2.07;;;1.80;;
27438;SDS011;14887;51.252;7.470;2023-04-01T19:07:55;0.50;;;0.40;;
27438;SDS011;14887;51.252;7.470;2023-04-01T19:10:46;2.57;;;2.10;;
27438;SDS011;14887;51.252;7.470;2023-04-01T19:13:37;1.83;;;1.73;;
27438;SDS011;14887;51.252;7.470;2023-04-01T19:16:36;1.73;;;1.63;;
27438;SDS011;14887;51.252;7.470;2023-04-01T19:27:42;9.90;;;2.97;;
27438;SDS011;14887;51.252;7.470;2023-04-01T19:44:31;0.60;;;0.60;;
27438;SDS011;14887;51.252;7.470;2023-04-01T19:49:37;0.50;;;0.50;;
27438;SDS011;14887;51.252;7.470;2023-04-01T19:52:29;0.50;;;0.40;;
27438;SDS011;14887;51.252;7.470;2023-04-01T19:55:04;0.50;;;0.40;;
27438;SDS011;14887;51.252;7.470;2023-04-01T19:57:47;7.03;;;1.03;;
27438;SDS011;14887;51.252;7.470;2023-04-01T20:00:22;2.33;;;1.93;;
27438;SDS011;14887;51.252;7.470;2023-04-01T20:11:45;1.97;;;1.37;;
27438;SDS011;14887;51.252;7.470;2023-04-01T20:17:06;2.30;;;2.20;;
27438;SDS011;14887;51.252;7.470;2023-04-01T20:25:19;0.50;;;0.40;;
27438;SDS011;14887;51.252;7.470;2023-04-01T20:27:53;0.67;;;0.67;;
27438;SDS011;14887;51.252;7.470;2023-04-01T20:33:17;0.60;;;0.60;;
27438;SDS011;14887;51.252;7.470;2023-04-01T20:36:13;0.50;;;0.40;;
27438;SDS011;14887;51.252;7.470;2023-04-01T20:44:34;2.37;;;2.27;;
27438;SDS011;14887;51.252;7.470;2023-04-01T20:47:15;1.00;;;0.80;;
27438;SDS011;14887;51.252;7.470;2023-04-01T20:50:22;0.50;;;0.50;;
27438;SDS011;14887;51.252;7.470;2023-04-01T20:52:56;1.43;;;1.27;;
27438;SDS011;14887;51.252;7.470;2023-04-01T20:55:47;0.77;;;0.70;;
27438;SDS011;14887;51.252;7.470;2023-04-01T20:58:49;0.63;;;0.63;;
27438;SDS011;14887;51.252;7.470;2023-04-01T21:06:58;0.50;;;0.50;;
27438;SDS011;14887;51.252;7.470;2023-04-01T21:09:55;0.50;;;0.40;;
27438;SDS011;14887;51.252;7.470;2023-04-01T21:15:59;0.50;;;0.40;;
27438;SDS011;14887;51.252;7.470;2023-04-01T21:29:57;0.50;;;0.40;;
27438;SDS011;14887;51.252;7.470;2023-04-01T21:32:32;1.67;;;0.80;;
27438;SDS011;14887;51.252;7.470;2023-04-01T21:46:37;0.50;;;0.50;;
27438;SDS011;14887;51.252;7.470;2023-04-01T22:00:51;0.50;;;0.40;;
27438;SDS011;14887;51.252;7.470;2023-04-01T22:06:34;6.10;;;2.70;;
27438;SDS011;14887;51.252;7.470;2023-04-01T22:09:18;5.83;;;3.30;;
27438;SDS011;14887;51.252;7.470;2023-04-01T22:14:41;0.50;;;0.40;;
27438;SDS011;14887;51.252;7.470;2023-04-01T22:17:32;4.80;;;2.87;;
27438;SDS011;14887;51.252;7.470;2023-04-01T22:25:40;7.70;;;3.60;;
27438;SDS011;14887;51.252;7.470;2023-04-01T22:28:55;8.33;;;3.97;;
27438;SDS011;14887;51.252;7.470;2023-04-01T22:31:01;10.73;;;5.50;;
27438;SDS011;14887;51.252;7.470;2023-04-01T22:33:49;10.77;;;4.30;;
27438;SDS011;14887;51.252;7.470;2023-04-01T22:38:55;7.03;;;3.10;;
27438;SDS011;14887;51.252;7.470;2023-04-01T22:41:37;9.13;;;4.07;;
27438;SDS011;14887;51.252;7.470;2023-04-01T22:44:38;10.30;;;4.50;;
27438;SDS011;14887;51.252;7.470;2023-04-01T22:47:16;5.87;;;2.70;;
27438;SDS011;14887;51.252;7.470;2023-04-01T22:49:59;9.47;;;4.73;;
27438;SDS011;14887;51.252;7.470;2023-04-01T22:52:42;8.07;;;4.17;;
27438;SDS011;14887;51.252;7.470;2023-04-01T22:55:21;8.47;;;4.97;;
27438;SDS011;14887;51.252;7.470;2023-04-01T22:57:57;6.20;;;3.63;;
27438;SDS011;14887;51.252;7.470;2023-04-01T23:00:26;8.33;;;3.70;;
27438;SDS011;14887;51.252;7.470;2023-04-01T23:05:54;5.30;;;3.07;;
27438;SDS011;14887;51.252;7.470;2023-04-01T23:11:20;35.30;;;3.60;;
27438;SDS011;14887;51.252;7.470;2023-04-01T23:19:37;66.00;;;4.50;;
27438;SDS011;14887;51.252;7.470;2023-04-01T23:27:47;105.07;;;5.90;;
27438;SDS011;14887;51.252;7.470;2023-04-01T23:36:11;75.27;;;5.07;;
27438;SDS011;14887;51.252;7.470;2023-04-01T23:38:40;61.23;;;4.43;;
27438;SDS011;14887;51.252;7.470;2023-04-01T23:41:07;121.40;;;6.60;;
27438;SDS011;14887;51.252;7.470;2023-04-01T23:43:42;77.27;;;6.20;;
27438;SDS011;14887;51.252;7.470;2023-04-01T23:46:10;217.47;;;10.70;;
27438;SDS011;14887;51.252;7.470;2023-04-01T23:48:39;82.37;;;7.13;;
27438;SDS011;14887;51.252;7.470;2023-04-01T23:51:21;135.03;;;6.90;;
27438;SDS011;14887;51.252;7.470;2023-04-01T23:53:57;148.10;;;7.33;;
27438;SDS011;14887;51.252;7.470;2023-04-01T23:56:37;165.57;;;9.77;;
27438;SDS011;14887;51.252;7.470;2023-04-01T23:59:09;132.47;;;7.30;;
